Аэропорт: Шпаковское. Ставрополь

ICAO: URMT

METAR:
2018/05/20 19:30
URMT 201930Z 15001MPS 9999 SCT030CB 16/14 Q1014 R07/290255 TEMPO 2000 TSRA BKN005 BKN020CB RMK QFE721
METAR:
2015/07/25 00:12
TAF TAF URMT 252300Z 2500/2609 12007G12MPS 9999 SCT020